Time;durP1;ratioP1;P1;durP2;ratioP2;P2;SDS_P1;SDS_P2;PMS_P1;PMS_P2;Temp;Humidity;BMP_temperature;BMP_pressure;BME280_temperature;BME280_humidity;BME280_pressure;Samples;Min_cycle;Max_cycle;Signal;HPM_P1;HPM_P2
2022/09/03 00:08:02;;;;;;;0.20;0.00;;;23.30;99.90;;;;;;26014938;22;20187;-72
2022/09/03 00:18:09;;;;;;;0.20;0.10;;;23.80;99.90;;;;;;26043125;22;20180;-72
2022/09/03 00:28:19;;;;;;;0.20;0.05;;;23.90;99.90;;;;;;26044977;22;20159;-74
2022/09/03 00:38:23;;;;;;;0.20;0.00;;;23.80;99.90;;;;;;26042734;22;20183;-72
2022/09/03 00:48:33;;;;;;;0.20;0.00;;;23.70;99.90;;;;;;26043654;22;20203;-71
2022/09/03 00:59:01;;;;;;;0.20;0.00;;;23.40;99.90;;;;;;26017905;22;20217;-73
2022/09/03 01:09:22;;;;;;;0.20;0.00;;;23.40;99.90;;;;;;26042947;22;20181;-72
2022/09/03 01:19:52;;;;;;;0.20;0.00;;;23.20;99.90;;;;;;26016289;22;20331;-71
2022/09/03 01:30:04;;;;;;;0.20;0.00;;;23.40;99.90;;;;;;26014679;22;20174;-72
2022/09/03 01:40:22;;;;;;;0.20;0.00;;;23.70;99.90;;;;;;26039613;22;20171;-71
2022/09/03 01:50:37;;;;;;;0.20;0.00;;;23.80;99.90;;;;;;26041513;22;20195;-72
2022/09/03 02:00:46;;;;;;;0.20;0.00;;;23.70;99.90;;;;;;25988616;22;20244;-73
2022/09/03 02:10:53;;;;;;;0.20;0.00;;;23.30;99.90;;;;;;26013411;22;20195;-71
2022/09/03 02:20:59;;;;;;;0.20;0.00;;;23.10;99.90;;;;;;26039690;22;20687;-71
2022/09/03 02:31:05;;;;;;;0.20;0.00;;;23.20;99.90;;;;;;26041773;22;20283;-72
2022/09/03 02:41:12;;;;;;;0.20;0.10;;;22.80;99.90;;;;;;26042441;22;20211;-72
2022/09/03 02:51:18;;;;;;;0.20;0.00;;;22.50;99.90;;;;;;26047944;22;20192;-71
2022/09/03 03:01:22;;;;;;;0.20;0.00;;;22.30;99.90;;;;;;26047207;22;20176;-72
2022/09/03 03:11:28;;;;;;;0.20;0.00;;;22.20;99.90;;;;;;26045681;22;20184;-72
2022/09/03 03:21:31;;;;;;;0.20;0.00;;;22.30;99.90;;;;;;26046644;22;20184;-71
2022/09/03 03:31:37;;;;;;;0.20;0.00;;;22.90;99.90;;;;;;26045537;22;20171;-71
2022/09/03 03:41:41;;;;;;;0.20;0.00;;;23.40;99.90;;;;;;26046425;22;20551;-71
2022/09/03 03:51:46;;;;;;;0.20;0.00;;;23.70;99.90;;;;;;26015633;22;20247;-72
2022/09/03 04:01:50;;;;;;;0.20;0.00;;;23.90;99.90;;;;;;26045273;22;20195;-71
2022/09/03 04:11:56;;;;;;;0.20;0.00;;;24.20;99.90;;;;;;25992390;22;20188;-72
2022/09/03 04:22:00;;;;;;;0.20;0.00;;;24.30;99.90;;;;;;26018599;22;20194;-72
2022/09/03 04:42:28;;;;;;;0.20;0.00;;;24.20;99.90;;;;;;26042963;22;20183;-71
2022/09/03 04:52:33;;;;;;;0.20;0.00;;;24.20;99.90;;;;;;26042554;22;20211;-72
2022/09/03 05:02:37;;;;;;;0.20;0.10;;;24.30;99.90;;;;;;26017081;22;20168;-72
2022/09/03 05:12:42;;;;;;;0.20;0.00;;;24.10;99.90;;;;;;26041583;22;20184;-72
2022/09/03 05:22:46;;;;;;;0.20;0.00;;;24.20;99.90;;;;;;26013636;22;20164;-72
2022/09/03 05:32:52;;;;;;;0.20;0.00;;;23.90;99.90;;;;;;26011859;22;20499;-73
2022/09/03 05:42:58;;;;;;;0.20;0.00;;;23.50;99.90;;;;;;26042019;22;20149;-72
2022/09/03 05:53:03;;;;;;;0.20;0.00;;;23.40;99.90;;;;;;26011582;22;20222;-71
2022/09/03 06:03:07;;;;;;;0.20;0.00;;;23.50;99.90;;;;;;26040680;22;20168;-72
2022/09/03 06:13:12;;;;;;;0.20;0.00;;;23.40;99.90;;;;;;26039863;22;20214;-71
2022/09/03 06:23:17;;;;;;;0.20;0.00;;;23.50;99.90;;;;;;26047885;22;20164;-70
2022/09/03 06:33:23;;;;;;;0.20;0.00;;;23.90;99.90;;;;;;26046808;22;20191;-73
2022/09/03 06:43:28;;;;;;;0.20;0.00;;;23.90;99.90;;;;;;26019258;22;20182;-71
2022/09/03 06:53:34;;;;;;;0.20;0.00;;;24.00;99.90;;;;;;26046220;22;20199;-71
2022/09/03 07:03:40;;;;;;;0.20;0.00;;;25.10;99.90;;;;;;26017036;22;20160;-71
2022/09/03 07:13:47;;;;;;;0.20;0.00;;;25.50;99.90;;;;;;26019842;22;20195;-71
2022/09/03 07:23:52;;;;;;;0.20;0.00;;;25.80;99.90;;;;;;26014997;22;20166;-71
2022/09/03 07:33:57;;;;;;;0.20;0.00;;;26.20;99.90;;;;;;26043636;22;20247;-71
2022/09/03 07:44:04;;;;;;;0.20;0.00;;;26.40;99.90;;;;;;26043258;22;20164;-72
2022/09/03 07:54:11;;;;;;;0.20;0.10;;;26.60;99.90;;;;;;26042821;22;20219;-73
2022/09/03 08:04:14;;;;;;;0.20;0.00;;;26.80;99.90;;;;;;26016834;22;20198;-72
2022/09/03 08:14:20;;;;;;;0.20;0.00;;;27.00;99.90;;;;;;26041099;22;20179;-70
2022/09/03 08:24:25;;;;;;;0.20;0.00;;;27.60;99.90;;;;;;26042329;22;20661;-72
2022/09/03 08:34:30;;;;;;;0.20;0.00;;;27.70;99.90;;;;;;26011780;22;20187;-71
2022/09/03 08:44:40;;;;;;;0.20;0.00;;;27.90;99.90;;;;;;26041439;22;20182;-73
2022/09/03 08:54:48;;;;;;;0.20;0.00;;;27.70;99.90;;;;;;26040657;22;20267;-72
2022/09/03 09:05:03;;;;;;;0.20;0.00;;;28.00;99.90;;;;;;26010973;22;20192;-72
2022/09/03 09:15:13;;;;;;;0.20;0.00;;;29.10;99.90;;;;;;26036875;22;20239;-71
2022/09/03 09:25:22;;;;;;;0.20;0.00;;;28.50;99.90;;;;;;26012510;22;20168;-71
2022/09/03 09:35:27;;;;;;;0.20;0.00;;;28.70;99.90;;;;;;26036603;22;20184;-73
2022/09/03 09:45:32;;;;;;;0.20;0.00;;;28.60;99.90;;;;;;26037665;22;20166;-72
2022/09/03 09:55:49;;;;;;;0.20;0.00;;;28.40;99.90;;;;;;25913730;23;20204;-72
2022/09/03 10:06:52;;;;;;;0.20;0.00;;;28.20;99.90;;;;;;25916368;23;20222;-73
2022/09/03 10:16:33;;;;;;;0.20;0.10;;;28.30;99.90;;;;;;25917781;23;20184;-72
2022/09/03 10:26:38;;;;;;;0.20;0.00;;;29.30;99.90;;;;;;25917264;23;20164;-73
2022/09/03 10:36:54;;;;;;;0.20;0.00;;;29.40;99.90;;;;;;25890831;23;20185;-72
2022/09/03 10:47:06;;;;;;;0.20;0.00;;;29.70;99.90;;;;;;25912584;23;20165;-74
2022/09/03 10:57:22;;;;;;;0.20;0.00;;;29.90;99.90;;;;;;25914634;22;20587;-72
2022/09/03 11:07:33;;;;;;;0.20;0.00;;;29.00;99.90;;;;;;25910781;23;20192;-72
2022/09/03 11:17:42;;;;;;;0.20;0.00;;;29.80;99.90;;;;;;25913203;23;20195;-70
2022/09/03 11:27:56;;;;;;;0.20;0.00;;;29.90;99.90;;;;;;25911334;23;20164;-72
2022/09/03 11:38:04;;;;;;;0.20;0.00;;;29.40;99.90;;;;;;25911556;23;20180;-73
2022/09/03 11:48:18;;;;;;;0.20;0.00;;;30.00;99.90;;;;;;25925927;22;20212;-73
2022/09/03 11:58:27;;;;;;;0.20;0.00;;;28.70;99.90;;;;;;26036039;22;20762;-72
2022/09/03 12:08:53;;;;;;;0.20;0.00;;;28.50;99.90;;;;;;26037979;22;20211;-71
2022/09/03 12:19:04;;;;;;;0.20;0.00;;;30.40;99.90;;;;;;26011980;22;20180;-73
2022/09/03 12:29:26;;;;;;;0.20;0.00;;;32.10;99.90;;;;;;26039102;22;20168;-71
2022/09/03 12:39:31;;;;;;;0.20;0.00;;;31.60;99.90;;;;;;26010833;22;20191;-71
2022/09/03 12:49:58;;;;;;;0.20;0.00;;;33.20;99.90;;;;;;26034297;22;20199;-73
2022/09/03 13:00:08;;;;;;;0.20;0.00;;;31.80;99.90;;;;;;26037184;22;20180;-73
2022/09/03 13:10:25;;;;;;;0.20;0.00;;;32.40;99.90;;;;;;26040608;22;20199;-71
2022/09/03 13:20:38;;;;;;;0.20;0.00;;;31.50;99.90;;;;;;26012484;22;20199;-71
2022/09/03 13:30:54;;;;;;;0.20;0.00;;;31.70;99.90;;;;;;26011972;22;20160;-71
2022/09/03 13:41:09;;;;;;;0.20;0.00;;;32.00;99.90;;;;;;26038072;22;20210;-73
2022/09/03 13:51:19;;;;;;;0.20;0.00;;;32.60;99.90;;;;;;26007973;22;20191;-72
2022/09/03 14:01:43;;;;;;;0.20;0.00;;;32.80;99.90;;;;;;26033245;22;20221;-72
2022/09/03 14:11:56;;;;;;;0.20;0.00;;;33.50;99.90;;;;;;26036127;22;20180;-72
2022/09/03 14:22:08;;;;;;;0.20;0.00;;;34.10;99.90;;;;;;26039076;22;20176;-73
2022/09/03 14:32:26;;;;;;;0.20;0.00;;;33.70;99.90;;;;;;26038833;22;20164;-72
2022/09/03 14:42:55;;;;;;;0.20;0.00;;;33.90;99.90;;;;;;26045313;22;20295;-72
2022/09/03 14:53:20;;;;;;;0.20;0.00;;;32.60;99.90;;;;;;26045647;22;20188;-72
2022/09/03 15:04:02;;;;;;;0.20;0.00;;;30.50;99.90;;;;;;26042832;22;20247;-72
2022/09/03 15:14:14;;;;;;;0.20;0.00;;;28.70;99.90;;;;;;25956176;22;20179;-70
2022/09/03 15:24:29;;;;;;;0.20;0.00;;;28.40;99.90;;;;;;26044178;22;20203;-72
2022/09/03 15:34:52;;;;;;;0.20;0.00;;;27.80;99.90;;;;;;26014214;22;20156;-72
2022/09/03 15:45:07;;;;;;;0.20;0.00;;;27.40;99.90;;;;;;26040833;22;20155;-72
2022/09/03 15:55:15;;;;;;;0.20;0.00;;;27.20;99.90;;;;;;26039068;22;20199;-72
2022/09/03 16:05:27;;;;;;;0.20;0.00;;;27.10;99.90;;;;;;26009781;22;20188;-72
2022/09/03 16:15:38;;;;;;;0.20;0.00;;;26.80;99.90;;;;;;26010544;22;20180;-71
2022/09/03 16:25:52;;;;;;;0.20;0.00;;;26.80;99.90;;;;;;26012874;22;20156;-73
2022/09/03 16:36:03;;;;;;;0.20;0.00;;;26.80;99.90;;;;;;26012097;22;20172;-71
2022/09/03 16:46:19;;;;;;;0.20;0.00;;;26.60;99.90;;;;;;26038479;22;20152;-71
2022/09/03 16:56:38;;;;;;;0.20;0.00;;;26.60;99.90;;;;;;26039033;22;20196;-71
2022/09/03 17:06:52;;;;;;;0.20;0.00;;;26.80;99.90;;;;;;26037696;22;20180;-72
2022/09/03 17:17:05;;;;;;;0.20;0.00;;;26.60;99.90;;;;;;26036619;22;20178;-73
2022/09/03 17:27:29;;;;;;;0.20;0.00;;;26.60;99.90;;;;;;26038631;22;20536;-71
2022/09/03 17:37:45;;;;;;;0.20;0.00;;;26.60;99.90;;;;;;26037436;22;20188;-69
2022/09/03 17:48:17;;;;;;;0.20;0.00;;;26.40;99.90;;;;;;26009793;22;20187;-71
2022/09/03 17:58:29;;;;;;;0.20;0.00;;;26.40;99.90;;;;;;26035681;22;20188;-72
2022/09/03 18:08:43;;;;;;;0.20;0.00;;;26.20;99.90;;;;;;25982589;22;20207;-70
2022/09/03 18:18:51;;;;;;;0.20;0.00;;;26.10;99.90;;;;;;26015974;22;20187;-73
2022/09/03 20:24:04;;;;;;;0.20;0.10;;;25.70;99.90;;;;;;26039293;22;20199;-72
2022/09/03 20:34:22;;;;;;;0.20;0.00;;;25.50;99.90;;;;;;26038889;22;20159;-71
2022/09/03 20:44:52;;;;;;;0.20;0.00;;;25.20;99.90;;;;;;26011689;22;20180;-71
2022/09/03 20:55:07;;;;;;;0.20;0.00;;;25.10;99.90;;;;;;26010977;22;20188;-71
2022/09/03 21:05:17;;;;;;;0.20;0.00;;;24.90;99.90;;;;;;26039493;22;20196;-70
2022/09/03 21:15:31;;;;;;;0.20;0.00;;;24.70;99.90;;;;;;26012358;22;20164;-73
2022/09/03 21:25:39;;;;;;;0.20;0.00;;;24.50;99.90;;;;;;26038530;22;20167;-72
2022/09/03 21:35:52;;;;;;;0.20;0.00;;;24.50;99.90;;;;;;26039623;22;20179;-72
2022/09/03 21:46:03;;;;;;;0.20;0.00;;;24.50;99.90;;;;;;26038296;22;20159;-72
2022/09/03 21:56:37;;;;;;;0.20;0.10;;;24.50;99.90;;;;;;26038858;22;20206;-71
2022/09/03 22:06:50;;;;;;;0.20;0.00;;;24.50;99.90;;;;;;26040155;22;20184;-72
2022/09/03 22:17:04;;;;;;;0.20;0.00;;;24.50;99.90;;;;;;26008980;22;20180;-72
2022/09/03 22:27:14;;;;;;;0.20;0.00;;;24.60;99.90;;;;;;26011483;22;20164;-72
2022/09/03 22:37:31;;;;;;;0.20;0.00;;;24.50;99.90;;;;;;26040455;22;20196;-71
2022/09/03 22:47:42;;;;;;;0.20;0.00;;;24.40;99.90;;;;;;26039500;22;20187;-71
2022/09/03 22:57:59;;;;;;;0.20;0.00;;;24.30;99.90;;;;;;26041157;22;20192;-71
2022/09/03 23:08:08;;;;;;;0.20;0.03;;;24.30;99.90;;;;;;26046893;22;20191;-70
2022/09/03 23:18:18;;;;;;;0.20;0.00;;;24.20;99.90;;;;;;26045628;22;20176;-71
2022/09/03 23:28:27;;;;;;;0.20;0.00;;;24.00;99.90;;;;;;26046337;22;20164;-71
2022/09/03 23:38:44;;;;;;;0.20;0.00;;;23.70;99.90;;;;;;26045921;22;20191;-71
2022/09/03 23:49:05;;;;;;;0.20;0.00;;;23.60;99.90;;;;;;26019799;22;20180;-72
2022/09/03 23:59:17;;;;;;;0.20;0.00;;;23.30;99.90;;;;;;26043350;22;20191;-72
